11.1 C
London
Wednesday, September 28, 2022

CRASH: Grodno AN12 impacted terrain on go around

- Advertisement - Booking.com
- Advertisement -spot_imgspot_imgspot_imgspot_img

A Grodno Aviakompania Antonov AN-12BK, registration EW-518TI, was on approach to Irkutsk’s runway 30 with 7 crew and cargo consisting of food and consumer products when the crew attempted a go-around due to weather at about 240 meters/790 feet AGL about 2nm from the runway threshold.

The radar and radio communication was lost shortly after, around 19:45L. (11:45Z).

The radar and radio communication was lost shortly after, around 19:45L. (11:45Z).  The plane was later discovered crashed and burning in the town of Pivovarikha, some 1.7 nautical miles east-southeast of the runway 30 threshold. The collision took the lives of all seven crew members.

On November 4th, 2021, ATC representatives reported that the aircraft’s altitude indication changed from 240 to roughly 120 meters AGL within 3-4 seconds of the crew announcing the go around, and then the aircraft tag disappeared from the screen.

The aircraft had 7 persons on board, according to the Interstate Aviation Committee (MAK), and was destroyed by Grodno Airlines’ An-12BK EW-518TI. An investigation has been launched by the MAK.

Both black boxes were discovered on November 4th, 2021.

On November 4th, 2021, it was revealed that there were 9 individuals on board the aircraft, according to the Grodno Airlines load manifest: 5 crew and 4 people escorting the cargo.

Investigators are looking into possible theories of icing of the elevator/horizontal stabilizer causing loss of control as a result of freezing rain on November 4th, 2021, according to Russian media.

UIII 031300Z 30010MPS 2000 R30/P2000U SHSN OVC008CB M07/M08 Q1010 R30/450250 NOSIG RMK QBB250 QFE713/0951=
UIII 031230Z 30007MPS 1300 1200NW R30/P2000N SHSN OVC007CB M07/M08 Q1010 R30/450250 NOSIG RMK QBB210 QFE713/0950=
UIII 031200Z 29008MPS 0700 0550NW R30/1600 +SHSN OVC006CB M07/M08 Q1009 R30/450250 NOSIG RMK QBB200 QFE713/0950=
UIII 031130Z 29008MPS 0800 R30/1700 +SHSN OVC007CB M07/M08 Q1009 R30/450250 NOSIG RMK QBB220 QFE712/0950=
UIII 031100Z 30008MPS 5000 -SHSN OVC012CB M06/M08 Q1008 RESHSN R30/450250 NOSIG RMK QFE711/0949=
UIII 031030Z 31008MPS 2500 -SHSN OVC011CB M06/M08 Q1007 RESHSN R30/450250 NOSIG RMK QFE711/0948=

Source Avhearld

Featured Photo source: Siberian Emergency Ministry

- Advertisement -
Latest news
- Advertisement - Get a .com now from $4.99*/yr with GoDaddy!
- Advertisement -
- Advertisement -
Related news
- Advertisement -spot_img

LEAVE A REPLY

Please enter your comment!
Please enter your name here